Overview Statistics Trail Chart Weather Telemetry Raw packets
 

This is the latest recevied weather packets stored in our database for station/object ENBN. If no packets are shown the sender has not sent any weather packets the latest 10 day(s).

<< 1 2 3 4 5 6 >>
Time Temp. Humidity Pressure Rain* Wind** Luminosity Snow
1788577387 11.67° C 81% 998 hPa - - - -
1788575587 12.78° C 76% 998 hPa - - - -
1788573788 11.67° C 81% 998 hPa - - - -
1788571987 12.78° C 76% 997 hPa - - - -
1788570188 12.78° C 81% 997 hPa - - - -
1788568387 13.89° C 71% 997 hPa - - - -
1788566588 12.78° C 76% 997 hPa - - - -
1788564787 12.78° C 76% 997 hPa - - - -
1788562988 13.89° C 76% 997 hPa - - - -
1788561188 15° C 67% 997 hPa - - - -
1788559387 13.89° C 71% 997 hPa - - - -
1788557587 13.89° C 71% 997 hPa - - - -
1788553987 15° C 67% 997 hPa - - - -
1788552186 13.89° C 71% 997 hPa - - - -
1788550388 12.78° C 81% 997 hPa - - - -
1788548588 12.78° C 87% 997 hPa - - - -
1788546788 13.89° C 87% 997 hPa - - - -
1788544988 15.56° C 77% 997 hPa - - - -
1788543188 15.56° C 77% 997 hPa - - - -
1788541388 15° C 82% 997 hPa - - - -
1788539588 15.56° C 77% 997 hPa - - - -
1788537788 15.56° C 82% 997 hPa - - - -
1788535988 15° C 82% 997 hPa - - - -
1788534188 15.56° C 82% 998 hPa - - - -
1788532388 15.56° C 77% 998 hPa - - - -

* Rain since midnight (hover to see other rain measurements)
** Current wind speed in m/s (hover to see current wind gust speed)